sensor_id;sensor_type;location;lat;lon;timestamp;temperature;humidity
60909;DHT22;46780;48.128;-1.704;2023-08-08T00:02:15;18.20;99.90
60909;DHT22;46780;48.128;-1.704;2023-08-08T00:04:42;18.20;99.90
60909;DHT22;46780;48.128;-1.704;2023-08-08T00:07:08;18.20;99.90
60909;DHT22;46780;48.128;-1.704;2023-08-08T00:09:36;18.20;99.90
60909;DHT22;46780;48.128;-1.704;2023-08-08T00:12:03;18.10;99.90
60909;DHT22;46780;48.128;-1.704;2023-08-08T00:14:30;18.10;99.90
60909;DHT22;46780;48.128;-1.704;2023-08-08T00:16:56;18.10;99.90
60909;DHT22;46780;48.128;-1.704;2023-08-08T00:19:23;18.10;99.90
60909;DHT22;46780;48.128;-1.704;2023-08-08T00:21:49;18.10;99.90
60909;DHT22;46780;48.128;-1.704;2023-08-08T00:24:16;18.10;99.90
60909;DHT22;46780;48.128;-1.704;2023-08-08T00:26:44;18.10;99.90
60909;DHT22;46780;48.128;-1.704;2023-08-08T00:29:10;18.10;99.90
60909;DHT22;46780;48.128;-1.704;2023-08-08T00:31:37;18.10;99.90
60909;DHT22;46780;48.128;-1.704;2023-08-08T00:34:03;18.10;99.90
60909;DHT22;46780;48.128;-1.704;2023-08-08T00:36:29;18.10;99.90
60909;DHT22;46780;48.128;-1.704;2023-08-08T00:38:56;18.10;99.90
60909;DHT22;46780;48.128;-1.704;2023-08-08T00:41:22;18.10;99.90
60909;DHT22;46780;48.128;-1.704;2023-08-08T00:43:50;18.00;99.90
60909;DHT22;46780;48.128;-1.704;2023-08-08T00:46:18;18.00;99.90
60909;DHT22;46780;48.128;-1.704;2023-08-08T00:48:44;18.00;99.90
60909;DHT22;46780;48.128;-1.704;2023-08-08T00:51:11;18.00;99.90
60909;DHT22;46780;48.128;-1.704;2023-08-08T00:53:37;17.90;99.90
60909;DHT22;46780;48.128;-1.704;2023-08-08T00:56:05;17.90;99.90
60909;DHT22;46780;48.128;-1.704;2023-08-08T00:58:31;17.90;99.90
60909;DHT22;46780;48.128;-1.704;2023-08-08T01:00:59;17.90;99.90
60909;DHT22;46780;48.128;-1.704;2023-08-08T01:03:25;17.90;99.90
60909;DHT22;46780;48.128;-1.704;2023-08-08T01:05:58;17.90;99.90
60909;DHT22;46780;48.128;-1.704;2023-08-08T01:08:30;17.90;99.90
60909;DHT22;46780;48.128;-1.704;2023-08-08T01:10:59;17.90;99.90
60909;DHT22;46780;48.128;-1.704;2023-08-08T01:13:28;17.90;99.90
60909;DHT22;46780;48.128;-1.704;2023-08-08T01:15:56;17.80;99.90
60909;DHT22;46780;48.128;-1.704;2023-08-08T01:18:25;17.80;99.90
60909;DHT22;46780;48.128;-1.704;2023-08-08T01:20:53;17.80;99.90
60909;DHT22;46780;48.128;-1.704;2023-08-08T01:23:30;17.80;99.90
60909;DHT22;46780;48.128;-1.704;2023-08-08T01:25:59;17.80;99.90
60909;DHT22;46780;48.128;-1.704;2023-08-08T01:28:26;17.80;99.90
60909;DHT22;46780;48.128;-1.704;2023-08-08T01:30:52;17.80;99.90
60909;DHT22;46780;48.128;-1.704;2023-08-08T01:33:19;17.80;99.90
60909;DHT22;46780;48.128;-1.704;2023-08-08T01:35:47;17.80;99.90
60909;DHT22;46780;48.128;-1.704;2023-08-08T01:38:20;17.70;99.90
60909;DHT22;46780;48.128;-1.704;2023-08-08T01:40:48;17.70;99.90
60909;DHT22;46780;48.128;-1.704;2023-08-08T01:43:16;17.60;99.90
60909;DHT22;46780;48.128;-1.704;2023-08-08T01:45:44;17.60;99.90
60909;DHT22;46780;48.128;-1.704;2023-08-08T01:48:11;17.60;99.90
60909;DHT22;46780;48.128;-1.704;2023-08-08T01:50:38;17.60;99.90
60909;DHT22;46780;48.128;-1.704;2023-08-08T01:53:04;17.60;99.90
60909;DHT22;46780;48.128;-1.704;2023-08-08T01:55:31;17.60;99.90
60909;DHT22;46780;48.128;-1.704;2023-08-08T01:57:57;17.60;99.90
60909;DHT22;46780;48.128;-1.704;2023-08-08T02:00:25;17.60;99.90
60909;DHT22;46780;48.128;-1.704;2023-08-08T02:02:52;17.60;99.90
60909;DHT22;46780;48.128;-1.704;2023-08-08T02:05:18;17.60;99.90
60909;DHT22;46780;48.128;-1.704;2023-08-08T02:07:45;17.60;99.90
60909;DHT22;46780;48.128;-1.704;2023-08-08T02:10:11;17.50;99.90
60909;DHT22;46780;48.128;-1.704;2023-08-08T02:12:38;17.50;99.90
60909;DHT22;46780;48.128;-1.704;2023-08-08T02:15:05;17.50;99.90
60909;DHT22;46780;48.128;-1.704;2023-08-08T02:17:33;17.50;99.90
60909;DHT22;46780;48.128;-1.704;2023-08-08T02:20:00;17.50;99.90
60909;DHT22;46780;48.128;-1.704;2023-08-08T02:22:26;17.50;99.90
60909;DHT22;46780;48.128;-1.704;2023-08-08T02:24:53;17.50;99.90
60909;DHT22;46780;48.128;-1.704;2023-08-08T02:27:19;17.40;99.90
60909;DHT22;46780;48.128;-1.704;2023-08-08T02:29:46;17.40;99.90
60909;DHT22;46780;48.128;-1.704;2023-08-08T02:32:12;17.50;99.90
60909;DHT22;46780;48.128;-1.704;2023-08-08T02:34:40;17.40;99.90
60909;DHT22;46780;48.128;-1.704;2023-08-08T02:37:06;17.40;99.90
60909;DHT22;46780;48.128;-1.704;2023-08-08T02:39:33;17.40;99.90
60909;DHT22;46780;48.128;-1.704;2023-08-08T02:41:59;17.40;99.90
60909;DHT22;46780;48.128;-1.704;2023-08-08T02:44:26;17.40;99.90
60909;DHT22;46780;48.128;-1.704;2023-08-08T02:46:52;17.40;99.90
60909;DHT22;46780;48.128;-1.704;2023-08-08T02:49:19;17.40;99.90
60909;DHT22;46780;48.128;-1.704;2023-08-08T02:51:47;17.30;99.90
60909;DHT22;46780;48.128;-1.704;2023-08-08T02:54:13;17.30;99.90
60909;DHT22;46780;48.128;-1.704;2023-08-08T02:56:39;17.30;99.90
60909;DHT22;46780;48.128;-1.704;2023-08-08T02:59:06;17.30;99.90
60909;DHT22;46780;48.128;-1.704;2023-08-08T03:01:32;17.30;99.90
60909;DHT22;46780;48.128;-1.704;2023-08-08T03:03:59;17.30;99.90
60909;DHT22;46780;48.128;-1.704;2023-08-08T03:06:25;17.30;99.90
60909;DHT22;46780;48.128;-1.704;2023-08-08T03:08:53;17.20;99.90
60909;DHT22;46780;48.128;-1.704;2023-08-08T03:11:20;17.20;99.90
60909;DHT22;46780;48.128;-1.704;2023-08-08T03:13:46;17.20;99.90
60909;DHT22;46780;48.128;-1.704;2023-08-08T03:16:13;17.20;99.90
60909;DHT22;46780;48.128;-1.704;2023-08-08T03:18:39;17.20;99.90
60909;DHT22;46780;48.128;-1.704;2023-08-08T03:21:06;17.20;99.90
60909;DHT22;46780;48.128;-1.704;2023-08-08T03:23:33;17.20;99.90
60909;DHT22;46780;48.128;-1.704;2023-08-08T03:26:01;17.20;99.90
60909;DHT22;46780;48.128;-1.704;2023-08-08T03:28:27;17.20;99.90
60909;DHT22;46780;48.128;-1.704;2023-08-08T03:30:53;17.10;99.90
60909;DHT22;46780;48.128;-1.704;2023-08-08T03:33:20;17.10;99.90
60909;DHT22;46780;48.128;-1.704;2023-08-08T03:35:46;17.10;99.90
60909;DHT22;46780;48.128;-1.704;2023-08-08T03:38:13;17.10;99.90
60909;DHT22;46780;48.128;-1.704;2023-08-08T03:40:39;17.00;99.90
60909;DHT22;46780;48.128;-1.704;2023-08-08T03:43:07;17.00;99.90
60909;DHT22;46780;48.128;-1.704;2023-08-08T03:45:34;16.90;99.90
60909;DHT22;46780;48.128;-1.704;2023-08-08T03:48:00;16.90;99.90
60909;DHT22;46780;48.128;-1.704;2023-08-08T03:50:26;16.90;99.90
60909;DHT22;46780;48.128;-1.704;2023-08-08T03:52:53;16.80;99.90
60909;DHT22;46780;48.128;-1.704;2023-08-08T03:55:19;16.80;99.90
60909;DHT22;46780;48.128;-1.704;2023-08-08T03:57:46;16.70;99.90
60909;DHT22;46780;48.128;-1.704;2023-08-08T04:00:14;16.70;99.90
60909;DHT22;46780;48.128;-1.704;2023-08-08T04:02:41;16.70;99.90
60909;DHT22;46780;48.128;-1.704;2023-08-08T04:05:08;16.70;99.90
60909;DHT22;46780;48.128;-1.704;2023-08-08T04:07:34;16.60;99.90
60909;DHT22;46780;48.128;-1.704;2023-08-08T04:10:01;16.60;99.90
60909;DHT22;46780;48.128;-1.704;2023-08-08T04:12:28;16.60;99.90
60909;DHT22;46780;48.128;-1.704;2023-08-08T04:14:54;16.50;99.90
60909;DHT22;46780;48.128;-1.704;2023-08-08T04:17:22;16.40;99.90
60909;DHT22;46780;48.128;-1.704;2023-08-08T04:19:49;16.30;99.90
60909;DHT22;46780;48.128;-1.704;2023-08-08T04:22:15;16.30;99.90
60909;DHT22;46780;48.128;-1.704;2023-08-08T04:24:42;16.20;99.90
60909;DHT22;46780;48.128;-1.704;2023-08-08T04:27:08;16.20;99.90
60909;DHT22;46780;48.128;-1.704;2023-08-08T04:29:35;16.20;99.90
60909;DHT22;46780;48.128;-1.704;2023-08-08T04:32:01;16.20;99.90
60909;DHT22;46780;48.128;-1.704;2023-08-08T04:34:29;16.10;99.90
60909;DHT22;46780;48.128;-1.704;2023-08-08T04:36:56;16.10;99.90
60909;DHT22;46780;48.128;-1.704;2023-08-08T04:39:22;16.00;99.90
60909;DHT22;46780;48.128;-1.704;2023-08-08T04:41:48;16.00;99.90
60909;DHT22;46780;48.128;-1.704;2023-08-08T04:44:15;16.00;99.90
60909;DHT22;46780;48.128;-1.704;2023-08-08T04:46:41;16.00;99.90
60909;DHT22;46780;48.128;-1.704;2023-08-08T04:49:08;16.00;99.90
60909;DHT22;46780;48.128;-1.704;2023-08-08T04:51:36;15.90;99.90
60909;DHT22;46780;48.128;-1.704;2023-08-08T04:54:02;15.90;99.90
60909;DHT22;46780;48.128;-1.704;2023-08-08T04:56:28;15.90;99.90
60909;DHT22;46780;48.128;-1.704;2023-08-08T04:58:55;15.90;99.90
60909;DHT22;46780;48.128;-1.704;2023-08-08T05:01:21;15.90;99.90
60909;DHT22;46780;48.128;-1.704;2023-08-08T05:03:48;15.90;99.90
60909;DHT22;46780;48.128;-1.704;2023-08-08T05:06:14;15.90;99.90
60909;DHT22;46780;48.128;-1.704;2023-08-08T05:08:42;15.90;99.90
60909;DHT22;46780;48.128;-1.704;2023-08-08T05:11:09;15.90;99.90
60909;DHT22;46780;48.128;-1.704;2023-08-08T05:13:35;15.90;99.90
60909;DHT22;46780;48.128;-1.704;2023-08-08T05:16:01;15.90;99.90
60909;DHT22;46780;48.128;-1.704;2023-08-08T05:18:28;15.90;99.90
60909;DHT22;46780;48.128;-1.704;2023-08-08T05:20:54;16.00;99.90
60909;DHT22;46780;48.128;-1.704;2023-08-08T05:23:21;16.00;99.90
60909;DHT22;46780;48.128;-1.704;2023-08-08T05:25:49;16.00;99.90
60909;DHT22;46780;48.128;-1.704;2023-08-08T05:28:15;16.00;99.90
60909;DHT22;46780;48.128;-1.704;2023-08-08T05:30:41;16.00;99.90
60909;DHT22;46780;48.128;-1.704;2023-08-08T05:33:08;16.00;99.90
60909;DHT22;46780;48.128;-1.704;2023-08-08T05:35:35;16.10;99.90
60909;DHT22;46780;48.128;-1.704;2023-08-08T05:38:01;16.10;99.90
60909;DHT22;46780;48.128;-1.704;2023-08-08T05:40:28;16.10;99.90
60909;DHT22;46780;48.128;-1.704;2023-08-08T05:42:55;16.10;99.90
60909;DHT22;46780;48.128;-1.704;2023-08-08T05:45:22;16.10;99.90
60909;DHT22;46780;48.128;-1.704;2023-08-08T05:47:48;16.10;99.90
60909;DHT22;46780;48.128;-1.704;2023-08-08T05:50:15;16.10;99.90
60909;DHT22;46780;48.128;-1.704;2023-08-08T05:52:41;16.10;99.90
60909;DHT22;46780;48.128;-1.704;2023-08-08T05:55:08;16.10;99.90
60909;DHT22;46780;48.128;-1.704;2023-08-08T05:57:34;16.10;99.90
60909;DHT22;46780;48.128;-1.704;2023-08-08T06:00:03;16.10;99.90
60909;DHT22;46780;48.128;-1.704;2023-08-08T06:02:29;16.10;99.90
60909;DHT22;46780;48.128;-1.704;2023-08-08T06:04:56;16.10;99.90
60909;DHT22;46780;48.128;-1.704;2023-08-08T06:07:22;16.20;99.90
60909;DHT22;46780;48.128;-1.704;2023-08-08T06:09:49;16.20;99.90
60909;DHT22;46780;48.128;-1.704;2023-08-08T06:12:15;16.20;99.90
60909;DHT22;46780;48.128;-1.704;2023-08-08T06:14:42;16.30;99.90
60909;DHT22;46780;48.128;-1.704;2023-08-08T06:17:10;16.30;99.90
60909;DHT22;46780;48.128;-1.704;2023-08-08T06:19:36;16.30;99.90
60909;DHT22;46780;48.128;-1.704;2023-08-08T06:22:03;16.40;99.90
60909;DHT22;46780;48.128;-1.704;2023-08-08T06:24:29;16.40;99.90
60909;DHT22;46780;48.128;-1.704;2023-08-08T06:26:56;16.40;99.90
60909;DHT22;46780;48.128;-1.704;2023-08-08T06:29:22;16.50;99.90
60909;DHT22;46780;48.128;-1.704;2023-08-08T06:31:49;16.50;99.90
60909;DHT22;46780;48.128;-1.704;2023-08-08T06:34:16;16.50;99.90
60909;DHT22;46780;48.128;-1.704;2023-08-08T06:36:43;16.60;99.90
60909;DHT22;46780;48.128;-1.704;2023-08-08T06:39:09;16.70;99.90
60909;DHT22;46780;48.128;-1.704;2023-08-08T06:41:37;16.80;99.90
60909;DHT22;46780;48.128;-1.704;2023-08-08T06:44:04;16.90;99.90
60909;DHT22;46780;48.128;-1.704;2023-08-08T06:46:30;16.90;99.90
60909;DHT22;46780;48.128;-1.704;2023-08-08T06:48:57;17.00;99.90
60909;DHT22;46780;48.128;-1.704;2023-08-08T06:51:25;17.00;99.90
60909;DHT22;46780;48.128;-1.704;2023-08-08T06:53:52;17.10;99.90
60909;DHT22;46780;48.128;-1.704;2023-08-08T06:56:18;17.10;99.90
60909;DHT22;46780;48.128;-1.704;2023-08-08T06:58:44;17.20;99.90
60909;DHT22;46780;48.128;-1.704;2023-08-08T07:01:11;17.30;99.90
60909;DHT22;46780;48.128;-1.704;2023-08-08T07:03:37;17.40;99.90
60909;DHT22;46780;48.128;-1.704;2023-08-08T07:06:04;17.40;99.90
60909;DHT22;46780;48.128;-1.704;2023-08-08T07:08:33;17.40;99.90
60909;DHT22;46780;48.128;-1.704;2023-08-08T07:11:00;17.50;99.90
60909;DHT22;46780;48.128;-1.704;2023-08-08T07:13:26;17.70;99.90
60909;DHT22;46780;48.128;-1.704;2023-08-08T07:15:53;17.80;99.90
60909;DHT22;46780;48.128;-1.704;2023-08-08T07:18:19;17.90;99.90
60909;DHT22;46780;48.128;-1.704;2023-08-08T07:20:46;18.00;99.90
60909;DHT22;46780;48.128;-1.704;2023-08-08T07:23:12;18.20;99.90
60909;DHT22;46780;48.128;-1.704;2023-08-08T07:25:40;18.20;99.90
60909;DHT22;46780;48.128;-1.704;2023-08-08T07:28:07;18.30;99.90
60909;DHT22;46780;48.128;-1.704;2023-08-08T07:30:33;18.40;99.90
60909;DHT22;46780;48.128;-1.704;2023-08-08T07:33:00;18.50;99.90
60909;DHT22;46780;48.128;-1.704;2023-08-08T07:35:27;18.50;99.90
60909;DHT22;46780;48.128;-1.704;2023-08-08T07:37:53;18.50;99.90
60909;DHT22;46780;48.128;-1.704;2023-08-08T07:40:20;18.60;99.90
60909;DHT22;46780;48.128;-1.704;2023-08-08T07:42:49;18.60;99.90
60909;DHT22;46780;48.128;-1.704;2023-08-08T07:45:16;18.60;99.80
60909;DHT22;46780;48.128;-1.704;2023-08-08T07:47:42;18.70;99.60
60909;DHT22;46780;48.128;-1.704;2023-08-08T07:50:09;18.70;99.30
60909;DHT22;46780;48.128;-1.704;2023-08-08T07:52:36;18.80;98.80
60909;DHT22;46780;48.128;-1.704;2023-08-08T07:55:03;18.80;98.80
60909;DHT22;46780;48.128;-1.704;2023-08-08T07:57:31;18.90;98.30
60909;DHT22;46780;48.128;-1.704;2023-08-08T07:59:59;19.00;98.00
60909;DHT22;46780;48.128;-1.704;2023-08-08T08:02:25;19.20;97.80
60909;DHT22;46780;48.128;-1.704;2023-08-08T08:04:52;19.30;97.00
60909;DHT22;46780;48.128;-1.704;2023-08-08T08:07:19;19.30;96.50
60909;DHT22;46780;48.128;-1.704;2023-08-08T08:09:45;19.30;96.10
60909;DHT22;46780;48.128;-1.704;2023-08-08T08:12:12;19.30;96.00
60909;DHT22;46780;48.128;-1.704;2023-08-08T08:14:38;19.30;95.80
60909;DHT22;46780;48.128;-1.704;2023-08-08T08:17:06;19.40;94.80
60909;DHT22;46780;48.128;-1.704;2023-08-08T08:19:33;19.60;94.20
60909;DHT22;46780;48.128;-1.704;2023-08-08T08:21:59;19.70;93.80
60909;DHT22;46780;48.128;-1.704;2023-08-08T08:24:27;19.80;93.50
60909;DHT22;46780;48.128;-1.704;2023-08-08T08:26:53;20.00;93.20
60909;DHT22;46780;48.128;-1.704;2023-08-08T08:29:20;20.10;92.30
60909;DHT22;46780;48.128;-1.704;2023-08-08T08:31:46;20.10;91.90
60909;DHT22;46780;48.128;-1.704;2023-08-08T08:34:14;20.10;91.90
60909;DHT22;46780;48.128;-1.704;2023-08-08T08:36:41;20.30;91.90
60909;DHT22;46780;48.128;-1.704;2023-08-08T08:39:07;20.50;91.20
60909;DHT22;46780;48.128;-1.704;2023-08-08T08:41:36;20.70;90.90
60909;DHT22;46780;48.128;-1.704;2023-08-08T08:44:03;20.80;90.50
60909;DHT22;46780;48.128;-1.704;2023-08-08T08:46:30;21.00;90.30
60909;DHT22;46780;48.128;-1.704;2023-08-08T08:48:58;21.00;87.20
60909;DHT22;46780;48.128;-1.704;2023-08-08T08:51:27;21.00;85.60
60909;DHT22;46780;48.128;-1.704;2023-08-08T08:53:54;21.10;83.40
60909;DHT22;46780;48.128;-1.704;2023-08-08T08:56:21;21.20;83.20
60909;DHT22;46780;48.128;-1.704;2023-08-08T08:58:47;21.70;83.30
60909;DHT22;46780;48.128;-1.704;2023-08-08T09:01:15;22.20;75.60
60909;DHT22;46780;48.128;-1.704;2023-08-08T09:03:43;22.70;73.00
60909;DHT22;46780;48.128;-1.704;2023-08-08T09:06:11;23.80;67.10
60909;DHT22;46780;48.128;-1.704;2023-08-08T09:08:39;25.30;59.40
60909;DHT22;46780;48.128;-1.704;2023-08-08T09:11:06;27.30;51.80
60909;DHT22;46780;48.128;-1.704;2023-08-08T09:13:36;29.00;43.80
60909;DHT22;46780;48.128;-1.704;2023-08-08T09:16:04;29.70;39.10
60909;DHT22;46780;48.128;-1.704;2023-08-08T09:18:31;28.50;40.20
60909;DHT22;46780;48.128;-1.704;2023-08-08T09:20:58;28.50;39.40
60909;DHT22;46780;48.128;-1.704;2023-08-08T09:23:24;29.00;38.40
60909;DHT22;46780;48.128;-1.704;2023-08-08T09:25:53;30.40;36.70
60909;DHT22;46780;48.128;-1.704;2023-08-08T09:28:19;31.90;32.10
60909;DHT22;46780;48.128;-1.704;2023-08-08T09:30:46;32.00;31.00
60909;DHT22;46780;48.128;-1.704;2023-08-08T09:33:13;32.90;30.30
60909;DHT22;46780;48.128;-1.704;2023-08-08T09:35:39;33.90;29.40
60909;DHT22;46780;48.128;-1.704;2023-08-08T09:38:06;34.20;28.30
60909;DHT22;46780;48.128;-1.704;2023-08-08T09:40:33;32.60;28.70
60909;DHT22;46780;48.128;-1.704;2023-08-08T09:43:01;31.80;30.00
60909;DHT22;46780;48.128;-1.704;2023-08-08T09:45:35;33.20;29.30
60909;DHT22;46780;48.128;-1.704;2023-08-08T09:48:02;34.60;27.40
60909;DHT22;46780;48.128;-1.704;2023-08-08T09:50:30;35.30;26.40
60909;DHT22;46780;48.128;-1.704;2023-08-08T09:52:57;35.70;25.80
60909;DHT22;46780;48.128;-1.704;2023-08-08T09:55:23;36.10;25.10
60909;DHT22;46780;48.128;-1.704;2023-08-08T09:57:51;36.40;24.60
60909;DHT22;46780;48.128;-1.704;2023-08-08T10:00:20;36.80;23.40
60909;DHT22;46780;48.128;-1.704;2023-08-08T10:02:46;37.00;23.40
60909;DHT22;46780;48.128;-1.704;2023-08-08T10:05:15;37.40;22.90
60909;DHT22;46780;48.128;-1.704;2023-08-08T10:07:42;37.00;22.60
60909;DHT22;46780;48.128;-1.704;2023-08-08T10:10:09;36.90;23.00
60909;DHT22;46780;48.128;-1.704;2023-08-08T10:12:36;36.80;23.30
60909;DHT22;46780;48.128;-1.704;2023-08-08T10:15:06;36.60;23.80
60909;DHT22;46780;48.128;-1.704;2023-08-08T10:17:37;36.20;24.30
60909;DHT22;46780;48.128;-1.704;2023-08-08T10:20:04;35.60;24.50
60909;DHT22;46780;48.128;-1.704;2023-08-08T10:22:31;35.00;25.50
60909;DHT22;46780;48.128;-1.704;2023-08-08T10:24:57;34.60;25.50
60909;DHT22;46780;48.128;-1.704;2023-08-08T10:27:28;34.10;25.40
60909;DHT22;46780;48.128;-1.704;2023-08-08T10:30:01;33.50;25.80
60909;DHT22;46780;48.128;-1.704;2023-08-08T10:32:28;33.20;26.20
60909;DHT22;46780;48.128;-1.704;2023-08-08T10:34:56;33.50;26.40
60909;DHT22;46780;48.128;-1.704;2023-08-08T10:37:22;34.20;26.00
60909;DHT22;46780;48.128;-1.704;2023-08-08T10:39:51;35.60;25.20
60909;DHT22;46780;48.128;-1.704;2023-08-08T10:42:19;36.80;23.60
60909;DHT22;46780;48.128;-1.704;2023-08-08T10:44:51;37.40;22.80
60909;DHT22;46780;48.128;-1.704;2023-08-08T10:47:21;38.40;21.90
60909;DHT22;46780;48.128;-1.704;2023-08-08T10:49:58;39.10;20.90
60909;DHT22;46780;48.128;-1.704;2023-08-08T10:52:25;39.30;20.40
60909;DHT22;46780;48.128;-1.704;2023-08-08T10:54:52;39.20;20.30
60909;DHT22;46780;48.128;-1.704;2023-08-08T10:57:19;39.10;20.70
60909;DHT22;46780;48.128;-1.704;2023-08-08T10:59:46;39.90;20.30
60909;DHT22;46780;48.128;-1.704;2023-08-08T11:02:13;40.30;19.60
60909;DHT22;46780;48.128;-1.704;2023-08-08T11:04:40;39.70;19.40
60909;DHT22;46780;48.128;-1.704;2023-08-08T11:07:08;39.40;19.40
60909;DHT22;46780;48.128;-1.704;2023-08-08T11:09:35;39.40;19.70
60909;DHT22;46780;48.128;-1.704;2023-08-08T11:12:01;39.90;20.20
60909;DHT22;46780;48.128;-1.704;2023-08-08T11:14:28;39.80;19.30
60909;DHT22;46780;48.128;-1.704;2023-08-08T11:16:54;39.20;19.70
60909;DHT22;46780;48.128;-1.704;2023-08-08T11:19:22;38.90;19.90
60909;DHT22;46780;48.128;-1.704;2023-08-08T11:21:48;39.30;20.10
60909;DHT22;46780;48.128;-1.704;2023-08-08T11:24:16;39.80;19.50
60909;DHT22;46780;48.128;-1.704;2023-08-08T11:26:44;37.90;20.60
60909;DHT22;46780;48.128;-1.704;2023-08-08T11:29:11;36.60;21.90
60909;DHT22;46780;48.128;-1.704;2023-08-08T11:31:37;36.30;22.50
60909;DHT22;46780;48.128;-1.704;2023-08-08T11:34:04;35.70;23.00
60909;DHT22;46780;48.128;-1.704;2023-08-08T11:36:32;35.40;23.80
60909;DHT22;46780;48.128;-1.704;2023-08-08T11:39:01;35.20;23.90
60909;DHT22;46780;48.128;-1.704;2023-08-08T11:41:30;34.90;23.80
60909;DHT22;46780;48.128;-1.704;2023-08-08T11:43:56;34.20;24.70
60909;DHT22;46780;48.128;-1.704;2023-08-08T11:46:25;34.00;25.20
60909;DHT22;46780;48.128;-1.704;2023-08-08T11:48:51;33.70;25.10
60909;DHT22;46780;48.128;-1.704;2023-08-08T11:51:18;33.50;25.50
60909;DHT22;46780;48.128;-1.704;2023-08-08T11:53:51;33.70;25.80
60909;DHT22;46780;48.128;-1.704;2023-08-08T11:56:19;34.10;25.30
60909;DHT22;46780;48.128;-1.704;2023-08-08T11:58:49;34.40;25.40
60909;DHT22;46780;48.128;-1.704;2023-08-08T12:01:19;34.20;25.40
60909;DHT22;46780;48.128;-1.704;2023-08-08T12:03:46;33.30;26.10
60909;DHT22;46780;48.128;-1.704;2023-08-08T12:06:13;32.10;28.20
60909;DHT22;46780;48.128;-1.704;2023-08-08T12:08:41;31.50;28.40
60909;DHT22;46780;48.128;-1.704;2023-08-08T12:11:08;31.50;28.70
60909;DHT22;46780;48.128;-1.704;2023-08-08T12:13:37;32.20;28.40
60909;DHT22;46780;48.128;-1.704;2023-08-08T12:16:05;33.20;27.50
60909;DHT22;46780;48.128;-1.704;2023-08-08T12:18:32;33.50;27.00
60909;DHT22;46780;48.128;-1.704;2023-08-08T12:20:59;32.80;26.70
60909;DHT22;46780;48.128;-1.704;2023-08-08T12:23:26;31.90;28.20
60909;DHT22;46780;48.128;-1.704;2023-08-08T12:25:53;31.60;29.10
60909;DHT22;46780;48.128;-1.704;2023-08-08T12:28:19;31.20;29.30
60909;DHT22;46780;48.128;-1.704;2023-08-08T12:30:46;31.30;29.40
60909;DHT22;46780;48.128;-1.704;2023-08-08T12:33:14;31.50;29.10
60909;DHT22;46780;48.128;-1.704;2023-08-08T12:35:40;31.60;29.40
60909;DHT22;46780;48.128;-1.704;2023-08-08T12:38:07;31.80;29.00
60909;DHT22;46780;48.128;-1.704;2023-08-08T12:40:33;31.50;29.30
60909;DHT22;46780;48.128;-1.704;2023-08-08T12:43:00;31.20;29.70
60909;DHT22;46780;48.128;-1.704;2023-08-08T12:45:26;31.30;30.00
60909;DHT22;46780;48.128;-1.704;2023-08-08T12:47:53;31.00;29.90
60909;DHT22;46780;48.128;-1.704;2023-08-08T12:50:21;30.80;30.90
60909;DHT22;46780;48.128;-1.704;2023-08-08T12:52:47;30.60;30.60
60909;DHT22;46780;48.128;-1.704;2023-08-08T12:55:14;29.80;31.40
60909;DHT22;46780;48.128;-1.704;2023-08-08T12:57:40;29.40;32.50
60909;DHT22;46780;48.128;-1.704;2023-08-08T13:00:08;29.40;33.10
60909;DHT22;46780;48.128;-1.704;2023-08-08T13:02:34;29.30;32.90
60909;DHT22;46780;48.128;-1.704;2023-08-08T13:05:01;29.10;33.30
60909;DHT22;46780;48.128;-1.704;2023-08-08T13:07:29;29.00;34.20
60909;DHT22;46780;48.128;-1.704;2023-08-08T13:09:55;29.00;34.60
60909;DHT22;46780;48.128;-1.704;2023-08-08T13:12:21;28.90;34.90
60909;DHT22;46780;48.128;-1.704;2023-08-08T13:14:48;28.60;35.20
60909;DHT22;46780;48.128;-1.704;2023-08-08T13:17:14;28.60;35.90
60909;DHT22;46780;48.128;-1.704;2023-08-08T13:19:41;28.40;36.20
60909;DHT22;46780;48.128;-1.704;2023-08-08T13:22:08;28.30;36.00
60909;DHT22;46780;48.128;-1.704;2023-08-08T13:24:36;28.00;37.20
60909;DHT22;46780;48.128;-1.704;2023-08-08T13:27:02;28.00;37.50
60909;DHT22;46780;48.128;-1.704;2023-08-08T13:29:29;28.30;37.40
60909;DHT22;46780;48.128;-1.704;2023-08-08T13:31:55;28.40;37.00
60909;DHT22;46780;48.128;-1.704;2023-08-08T13:34:22;28.10;37.60
60909;DHT22;46780;48.128;-1.704;2023-08-08T13:36:48;27.90;37.80
60909;DHT22;46780;48.128;-1.704;2023-08-08T13:39:15;27.60;38.60
60909;DHT22;46780;48.128;-1.704;2023-08-08T13:41:43;27.30;39.40
60909;DHT22;46780;48.128;-1.704;2023-08-08T13:44:09;27.20;39.90
60909;DHT22;46780;48.128;-1.704;2023-08-08T13:46:36;27.10;40.20
60909;DHT22;46780;48.128;-1.704;2023-08-08T13:49:02;26.80;40.80
60909;DHT22;46780;48.128;-1.704;2023-08-08T13:51:29;26.40;41.50
60909;DHT22;46780;48.128;-1.704;2023-08-08T13:53:55;26.20;42.40
60909;DHT22;46780;48.128;-1.704;2023-08-08T13:56:22;25.80;42.90
60909;DHT22;46780;48.128;-1.704;2023-08-08T13:58:49;25.50;44.30
60909;DHT22;46780;48.128;-1.704;2023-08-08T14:01:16;25.30;45.60
60909;DHT22;46780;48.128;-1.704;2023-08-08T14:03:42;25.30;46.40
60909;DHT22;46780;48.128;-1.704;2023-08-08T14:06:09;25.30;46.40
60909;DHT22;46780;48.128;-1.704;2023-08-08T14:08:35;25.40;46.20
60909;DHT22;46780;48.128;-1.704;2023-08-08T14:11:02;25.40;46.30
60909;DHT22;46780;48.128;-1.704;2023-08-08T14:13:28;25.50;46.90
60909;DHT22;46780;48.128;-1.704;2023-08-08T14:15:56;25.70;46.90
60909;DHT22;46780;48.128;-1.704;2023-08-08T14:18:23;26.00;46.20
60909;DHT22;46780;48.128;-1.704;2023-08-08T14:20:49;26.10;45.90
60909;DHT22;46780;48.128;-1.704;2023-08-08T14:23:16;26.10;46.10
60909;DHT22;46780;48.128;-1.704;2023-08-08T14:25:42;25.90;46.10
60909;DHT22;46780;48.128;-1.704;2023-08-08T14:28:09;25.60;47.00
60909;DHT22;46780;48.128;-1.704;2023-08-08T14:30:35;25.50;47.60
60909;DHT22;46780;48.128;-1.704;2023-08-08T14:33:03;25.60;47.40
60909;DHT22;46780;48.128;-1.704;2023-08-08T14:35:30;25.60;47.60
60909;DHT22;46780;48.128;-1.704;2023-08-08T14:37:57;25.50;47.70
60909;DHT22;46780;48.128;-1.704;2023-08-08T14:40:23;25.50;48.50
60909;DHT22;46780;48.128;-1.704;2023-08-08T14:42:49;25.80;48.90
60909;DHT22;46780;48.128;-1.704;2023-08-08T14:45:16;26.10;48.00
60909;DHT22;46780;48.128;-1.704;2023-08-08T14:47:42;26.10;47.40
60909;DHT22;46780;48.128;-1.704;2023-08-08T14:50:10;26.00;47.50
60909;DHT22;46780;48.128;-1.704;2023-08-08T14:52:37;25.80;48.10
60909;DHT22;46780;48.128;-1.704;2023-08-08T14:55:04;25.50;48.60
60909;DHT22;46780;48.128;-1.704;2023-08-08T14:57:31;25.30;49.50
60909;DHT22;46780;48.128;-1.704;2023-08-08T14:59:58;25.30;50.20
60909;DHT22;46780;48.128;-1.704;2023-08-08T15:02:24;25.20;51.20
60909;DHT22;46780;48.128;-1.704;2023-08-08T15:04:51;25.30;51.90
60909;DHT22;46780;48.128;-1.704;2023-08-08T15:07:19;25.40;51.80
60909;DHT22;46780;48.128;-1.704;2023-08-08T15:09:45;25.60;51.20
60909;DHT22;46780;48.128;-1.704;2023-08-08T15:12:14;25.80;50.40
60909;DHT22;46780;48.128;-1.704;2023-08-08T15:14:41;25.90;50.20